Mexico, Kentucky
Current Conditions -  °F | °C
As of 10:15 AM on Thursday 18 Dec 2014 (Local Time) from K5M9 Reporting Station
Overcast Overcast  
Wind Chill: 26°   Ceiling: 3800
Heat Index: 31°   Visibility: 7mi
Dew Point: 28°   Wind: 5mph
Humidity: 88%   Direction: 20°NNE
Pressure: 30.3"   Gusts: NA
Location:  37.3359°N, 88.1049°W
Report Text: K5M9 181615Z AUTO 02004KT 7SM SCT010 SCT029 OVC038 00/M02 A3030 RMK AO2 T10051022
Loading
Personal Weather Stations






























Interactive Weather Map New forecast layout! Learn more

10-Day Weather Forecast

Advertisements
Track Severe Weather on mobile